Pasadena 2N

39° 08' 31"N, 76° 30' 27"W, Elevation 43 ft.
Eastern Time

Hourly observations for the last 72 hours

Date Time Temperature (°F) Humi-
dity

(%)
Wind
(mph)
Pressure Rain (in) Sun
(W/m2)
ET
(in)
Air Dew 6 Hour 1 Hr 3 Hr 6 Hr Day
Alt
(in)
Sea
Level

(mb)
Max Min
27 13:00 60.4 55.2 83 N 2 G 5 30.18 1022.0 0.00 327 0.006
27 12:00 59.5 54.7 84 NE 0 G 4 30.20 1022.6 0.00 130 0.003
27 11:00 58.9 54.7 86 ENE 1 G 4 30.19 1022.4 0.00 128 0.001
27 10:00 58.1 54.6 88 NNW 0 G 2 30.20 1022.7 0.00 77 0.000
27 09:00 57.7 56.0 94 W 0 G 3 30.20 1022.7 0.00 35 0.000
27 08:00 56.8 56.0 56.8 54.0 97 E 0 G 3 30.18 1022.1 0.00 5 0.000
27 07:00 56.2 55.6 98 Calm 30.17 1021.5 0.00 0 0.000
27 06:00 55.8 55.2 98 Calm 30.14 1020.6 0.00 0 0.000
27 05:00 55.2 54.6 98 Calm 30.13 1020.3 0.00 0 0.000
27 04:00 54.4 53.8 98 Calm 30.12 1019.9 0.00 0 0.000
27 03:00 54.6 53.8 97 Calm 30.11 1019.7 0.00 0 0.000
27 02:00 54.2 53.4 55.1 53.1 97 Calm 30.11 1019.8 0.00 0 0.000
27 01:00 54.8 54.0 97 Calm 30.11 1019.6 0.00 0 0.000
27 00:00 54.2 53.4 97 Calm 30.11 1019.8 0.01 0 0.018
26 23:00 53.7 52.9 97 Calm 30.12 1020.0 0.01 0 0.018
26 22:00 53.6 52.8 97 Calm 30.11 1019.5 0.01 0 0.018
26 21:00 53.8 52.7 96 Calm 30.10 1019.4 0.01 0 0.018
26 20:00 55.1 54.0 61.2 55.1 96 Calm 30.10 1019.2 0.01 0 0.018
26 19:00 56.4 55.0 95 Calm 30.09 1019.0 0.01 0 0.018
26 18:00 59.4 57.7 94 Calm 30.07 1018.4 0.01 7 0.017
26 17:00 61.1 58.8 92 Calm 30.07 1018.5 0.01 65 0.015
26 16:00 61.1 58.8 92 W 0 G 3 30.07 1018.5 0.01 97 0.013
26 15:00 60.3 58.3 93 E 1 G 3 30.07 1018.2 0.01 169 0.010
26 14:00 58.2 56.5 58.2 51.2 94 WSW 2 G 6 30.09 1019.0 0.01 149 0.007
26 13:00 56.8 55.4 95 WSW 1 G 3 30.12 1020.0 0.01 134 0.005
26 12:00 55.6 54.5 96 NE 1 G 3 30.13 1020.2 0.01 134 0.002
26 11:00 54.1 53.3 97 NNW 0 G 3 30.14 1020.8 0.01 90 0.001
26 10:00 53.1 52.3 97 WNW 1 G 4 30.15 1020.9 0.01 42 0.000
26 09:00 52.1 51.3 97 NNW 1 G 2 30.14 1020.5 0.01 30 0.000
26 08:00 51.2 50.4 51.2 48.3 97 ENE 0 G 2 30.14 1020.5 0.01 0.01 5 0.000
26 07:00 50.5 49.4 96 NE 0 G 5 30.12 1019.9 0.01 0 0.000
26 06:00 49.9 48.8 96 NW 0 G 3 30.13 1020.5 0.01 0 0.000
26 05:00 49.2 48.1 96 NNW 0 G 4 30.13 1020.3 0.01 0.01 0 0.000
26 04:00 48.9 47.8 96 NNW 0 G 3 30.13 1020.3 0.01 0 0.000
26 03:00 48.3 47.2 96 NNW 1 G 4 30.14 1020.8 0.01 0.01 0 0.000
26 02:00 48.5 47.1 48.7 47.6 95 NNW 0 G 8 30.15 1021.2 0.02 0.00 0 0.000
26 01:00 48.4 47.0 95 N 0 G 7 30.17 1021.8 0.00 0 0.000
26 00:00 47.8 46.4 95 ENE 1 G 6 30.17 1021.7 0.29 0 0.014
25 23:00 47.8 46.4 95 NW 1 G 8 30.19 1022.5 0.01 0.02 0.29 0 0.014
25 22:00 48.2 46.6 94 NNE 2 G 9 30.19 1022.5 0.01 0.28 0 0.014
25 21:00 48.7 46.5 92 N 1 G 5 30.18 1022.1 0.27 0 0.014
25 20:00 48.2 46.0 49.7 47.3 92 N 1 G 7 30.19 1022.5 0.01 0.27 0 0.014
25 19:00 47.3 45.1 92 NE 1 G 8 30.19 1022.3 0.27 0 0.014
25 18:00 47.6 45.4 92 NNE 3 G 8 30.18 1022.1 0.27 0 0.014
25 17:00 47.9 45.7 92 ENE 1 G 5 30.17 1021.7 0.01 0.01 0.27 19 0.014
25 16:00 49.6 45.6 86 ENE 1 G 6 30.17 1021.7 0.26 32 0.013
25 15:00 49.6 45.9 87 N 1 G 6 30.17 1021.8 0.26 35 0.012
25 14:00 49.1 45.4 49.2 45.2 87 N 0 G 7 30.19 1022.4 0.01 0.13 0.26 44 0.011
25 13:00 48.1 45.3 90 ENE 0 G 3 30.21 1023.0 0.26 42 0.010
25 12:00 47.8 45.3 91 NNE 0 G 4 30.21 1023.1 0.01 0.26 67 0.009
25 11:00 46.7 44.2 91 E 1 G 7 30.22 1023.2 0.01 0.12 0.25 65 0.008
25 10:00 45.9 43.4 91 NE 1 G 4 30.22 1023.3 0.04 0.24 44 0.007
25 09:00 45.4 42.6 90 ENE 1 G 12 30.20 1022.6 0.07 0.20 16 0.007
25 08:00 45.5 42.2 54.4 45.5 88 ENE 2 G 8 30.17 1021.9 0.06 0.13 0.13 0.13 5 0.007
25 07:00 46.4 42.1 85 ENE 3 G 9 30.16 1021.2 0.06 0.07 0 0.006
25 06:00 49.2 42.3 77 N 1 G 10 30.15 1020.9 0.01 0.01 0 0.005
25 05:00 51.1 42.4 72 NE 3 G 10 30.12 1019.9 0.00 0 0.004
25 04:00 52.0 42.9 71 NE 3 G 13 30.11 1019.7 0.00 0 0.003
25 03:00 53.1 43.6 70 N 1 G 9 30.10 1019.4 0.00 0 0.002
25 02:00 54.4 45.2 64.5 54.4 71 N 1 G 8 30.09 1018.9 0.00 0 0.001
25 01:00 56.0 46.4 70 N 1 G 10 30.09 1018.9 0.00 0 0.000
25 00:00 57.2 47.5 70 NW 2 G 5 30.08 1018.7 0.00 0 0.051
24 23:00 58.6 49.6 72 E 1 G 9 30.07 1018.2 0.00 0 0.050
24 22:00 59.6 52.0 76 N 0 G 8 30.04 1017.2 0.00 0 0.049
24 21:00 61.0 53.0 75 NE 1 G 12 30.02 1016.6 0.00 0 0.048
24 20:00 64.5 56.8 77.2 64.5 76 N 2 G 11 30.00 1016.0 0.00 0 0.047
24 19:00 66.4 58.6 76 WNW 0 G 6 29.97 1014.8 0.00 0 0.047
24 18:00 68.7 60.5 75 NW 2 G 8 29.94 1014.0 0.00 18 0.046
24 17:00 70.6 64.1 80 NW 0 G 6 29.93 1013.5 0.00 30 0.045
24 16:00 74.4 65.6 74 WNW 2 G 10 29.90 1012.6 0.00 86 0.040
24 15:00 75.7 66.8 74 WNW 0 G 7 29.89 1012.3 0.00 239 0.032
24 14:00 77.2 68.3 77.3 62.5 74 WNW 3 G 8 29.90 1012.5 0.00 694 0.020

Data generated by WxSolution Version 1.9.1.8, Build 2020.02.16.